Thorne, North Dakota
Current Conditions -  °F | °C
As of 10:55 AM on Friday 28 Nov 2014 (Local Time) from KRUG Reporting Station
Haze Haze  
Wind Chill: -7°   Ceiling: 3100
Heat Index: 10°   Visibility: 4mi
Dew Point:   Wind: 17mph
Humidity: 85%   Direction: 110°ESE
Pressure: 29.8"   Gusts: NA
Location:  48.632°N, 99.9505°W
Report Text: KRUG 281655Z AUTO 11015KT 4SM BR FEW001 SCT006 OVC031 M12/M14 A2980 RMK AO2
Loading
Personal Weather Stations






























Interactive Weather Map New forecast layout! Learn more

10-Day Weather Forecast

Advertisements
Track Severe Weather on mobile